sensor_id;sensor_type;location;lat;lon;timestamp;pressure;altitude;pressure_sealevel;temperature;humidity
64602;BME280;51013;42.630;23.192;2022-11-20T00:01:24;91667.91;;;15.78;73.68
64602;BME280;51013;42.630;23.192;2022-11-20T00:03:53;91550.16;;;15.05;73.69
64602;BME280;51013;42.630;23.192;2022-11-20T00:06:20;91443.13;;;14.18;73.37
64602;BME280;51013;42.630;23.192;2022-11-20T00:08:48;91653.47;;;15.90;73.84
64602;BME280;51013;42.630;23.192;2022-11-20T00:11:17;91595.41;;;15.32;73.10
64602;BME280;51013;42.630;23.192;2022-11-20T00:13:47;91635.31;;;15.85;73.00
64602;BME280;51013;42.630;23.192;2022-11-20T00:16:30;91611.16;;;15.72;73.45
64602;BME280;51013;42.630;23.192;2022-11-20T00:18:58;91642.84;;;15.93;73.03
64602;BME280;51013;42.630;23.192;2022-11-20T00:21:30;91488.66;;;14.79;73.05
64602;BME280;51013;42.630;23.192;2022-11-20T00:23:57;91626.63;;;15.84;73.17
64602;BME280;51013;42.630;23.192;2022-11-20T00:26:27;91563.94;;;15.56;72.86
64602;BME280;51013;42.630;23.192;2022-11-20T00:29:00;91614.56;;;15.72;73.60
64602;BME280;51013;42.630;23.192;2022-11-20T00:31:30;91644.00;;;15.85;73.61
64602;BME280;51013;42.630;23.192;2022-11-20T00:33:58;91573.81;;;15.45;74.27
64602;BME280;51013;42.630;23.192;2022-11-20T00:36:27;91628.53;;;15.84;74.51
64602;BME280;51013;42.630;23.192;2022-11-20T00:38:55;91606.63;;;15.72;74.00
64602;BME280;51013;42.630;23.192;2022-11-20T00:41:23;91636.50;;;15.76;74.28
64602;BME280;51013;42.630;23.192;2022-11-20T00:43:52;91598.78;;;15.40;74.81
64602;BME280;51013;42.630;23.192;2022-11-20T00:48:41;91532.81;;;14.90;74.84
64602;BME280;51013;42.630;23.192;2022-11-20T00:51:08;91655.06;;;15.62;74.72
64602;BME280;51013;42.630;23.192;2022-11-20T00:53:36;91646.38;;;15.61;74.75
64602;BME280;51013;42.630;23.192;2022-11-20T00:56:04;91502.66;;;14.73;74.84
64602;BME280;51013;42.630;23.192;2022-11-20T00:58:33;91594.25;;;15.40;74.75
64602;BME280;51013;42.630;23.192;2022-11-20T01:01:02;91646.00;;;15.59;75.13
64602;BME280;51013;42.630;23.192;2022-11-20T01:03:32;91432.94;;;14.02;75.86
64602;BME280;51013;42.630;23.192;2022-11-20T01:06:06;91658.81;;;15.68;75.45
64602;BME280;51013;42.630;23.192;2022-11-20T01:08:35;91411.47;;;13.86;75.47
64602;BME280;51013;42.630;23.192;2022-11-20T01:11:04;91642.94;;;15.68;75.47
64602;BME280;51013;42.630;23.192;2022-11-20T01:13:32;91481.53;;;14.51;75.33
64602;BME280;51013;42.630;23.192;2022-11-20T01:16:07;91427.63;;;14.13;74.96
64602;BME280;51013;42.630;23.192;2022-11-20T01:18:35;91402.00;;;14.10;74.81
64602;BME280;51013;42.630;23.192;2022-11-20T01:21:06;91483.41;;;14.69;73.95
64602;BME280;51013;42.630;23.192;2022-11-20T01:23:34;91624.03;;;15.66;74.08
64602;BME280;51013;42.630;23.192;2022-11-20T01:26:04;91627.41;;;15.70;73.21
64602;BME280;51013;42.630;23.192;2022-11-20T01:28:34;91558.72;;;15.45;72.45
64602;BME280;51013;42.630;23.192;2022-11-20T01:31:10;91389.50;;;14.32;72.51
64602;BME280;51013;42.630;23.192;2022-11-20T01:33:37;91615.31;;;15.80;72.37
64602;BME280;51013;42.630;23.192;2022-11-20T01:36:06;91562.47;;;15.51;72.64
64602;BME280;51013;42.630;23.192;2022-11-20T01:38:34;91608.47;;;15.79;72.38
64602;BME280;51013;42.630;23.192;2022-11-20T01:41:01;91448.31;;;14.57;72.30
64602;BME280;51013;42.630;23.192;2022-11-20T01:43:29;91609.22;;;15.87;72.45
64602;BME280;51013;42.630;23.192;2022-11-20T01:46:05;91609.19;;;15.90;71.51
64602;BME280;51013;42.630;23.192;2022-11-20T01:48:38;91551.47;;;15.53;72.26
64602;BME280;51013;42.630;23.192;2022-11-20T01:51:17;91568.88;;;15.50;72.53
64602;BME280;51013;42.630;23.192;2022-11-20T01:53:46;91604.72;;;15.80;72.03
64602;BME280;51013;42.630;23.192;2022-11-20T01:56:13;91600.16;;;15.84;72.13
64602;BME280;51013;42.630;23.192;2022-11-20T01:58:46;91603.59;;;15.77;72.57
64602;BME280;51013;42.630;23.192;2022-11-20T02:01:14;91616.41;;;15.82;71.42
64602;BME280;51013;42.630;23.192;2022-11-20T02:03:43;91613.81;;;15.75;71.65
64602;BME280;51013;42.630;23.192;2022-11-20T02:06:17;91506.75;;;14.92;72.36
64602;BME280;51013;42.630;23.192;2022-11-20T02:08:46;91613.03;;;15.71;72.47
64602;BME280;51013;42.630;23.192;2022-11-20T02:11:13;91589.69;;;15.52;72.21
64602;BME280;51013;42.630;23.192;2022-11-20T02:13:40;91499.59;;;14.81;72.09
64602;BME280;51013;42.630;23.192;2022-11-20T02:16:13;91638.03;;;15.74;72.64
64602;BME280;51013;42.630;23.192;2022-11-20T02:18:41;91642.91;;;15.82;72.76
64602;BME280;51013;42.630;23.192;2022-11-20T02:21:17;91650.50;;;15.73;72.42
64602;BME280;51013;42.630;23.192;2022-11-20T02:24:06;91431.41;;;14.30;72.68
64602;BME280;51013;42.630;23.192;2022-11-20T02:26:43;91633.09;;;15.76;72.59
64602;BME280;51013;42.630;23.192;2022-11-20T02:29:10;91535.81;;;15.02;72.67
64602;BME280;51013;42.630;23.192;2022-11-20T02:31:40;91563.34;;;15.19;73.27
64602;BME280;51013;42.630;23.192;2022-11-20T02:34:09;91487.59;;;14.66;73.08
64602;BME280;51013;42.630;23.192;2022-11-20T02:36:38;91636.94;;;15.53;73.33
64602;BME280;51013;42.630;23.192;2022-11-20T02:39:09;91423.50;;;14.12;73.37
64602;BME280;51013;42.630;23.192;2022-11-20T02:41:38;91377.16;;;13.78;73.74
64602;BME280;51013;42.630;23.192;2022-11-20T02:44:07;91611.69;;;15.27;73.96
64602;BME280;51013;42.630;23.192;2022-11-20T02:46:34;91670.53;;;15.67;74.40
64602;BME280;51013;42.630;23.192;2022-11-20T02:49:03;91607.94;;;15.14;74.54
64602;BME280;51013;42.630;23.192;2022-11-20T03:02:29;91706.00;;;16.02;73.35
64602;BME280;51013;42.630;23.192;2022-11-20T03:04:57;91704.53;;;15.90;74.17
64602;BME280;51013;42.630;23.192;2022-11-20T03:07:24;91697.38;;;15.84;74.43
64602;BME280;51013;42.630;23.192;2022-11-20T03:09:52;91686.41;;;15.67;74.68
64602;BME280;51013;42.630;23.192;2022-11-20T03:12:19;91680.38;;;15.63;75.56
64602;BME280;51013;42.630;23.192;2022-11-20T03:14:48;91671.38;;;15.42;75.30
64602;BME280;51013;42.630;23.192;2022-11-20T03:17:15;91705.78;;;15.42;75.82
64602;BME280;51013;42.630;23.192;2022-11-20T03:19:45;91679.72;;;15.27;76.12
64602;BME280;51013;42.630;23.192;2022-11-20T03:22:11;91571.38;;;14.51;76.13
64602;BME280;51013;42.630;23.192;2022-11-20T03:24:38;91613.69;;;14.66;76.67
64602;BME280;51013;42.630;23.192;2022-11-20T03:27:05;91596.69;;;14.63;76.16
64602;BME280;51013;42.630;23.192;2022-11-20T03:29:32;91656.34;;;15.00;76.67
64602;BME280;51013;42.630;23.192;2022-11-20T03:31:59;91710.34;;;15.31;76.92
64602;BME280;51013;42.630;23.192;2022-11-20T03:34:26;91709.56;;;15.31;76.50
64602;BME280;51013;42.630;23.192;2022-11-20T03:36:54;91710.34;;;15.31;76.55
64602;BME280;51013;42.630;23.192;2022-11-20T03:39:21;91703.53;;;15.37;76.25
64602;BME280;51013;42.630;23.192;2022-11-20T03:41:49;91708.06;;;15.33;76.43
64602;BME280;51013;42.630;23.192;2022-11-20T03:44:16;91703.91;;;15.32;76.31
64602;BME280;51013;42.630;23.192;2022-11-20T03:46:43;91684.66;;;15.10;76.21
64602;BME280;51013;42.630;23.192;2022-11-20T03:49:10;91685.41;;;15.21;76.21
64602;BME280;51013;42.630;23.192;2022-11-20T03:51:37;91694.09;;;15.33;76.65
64602;BME280;51013;42.630;23.192;2022-11-20T03:54:07;91703.53;;;15.37;76.55
64602;BME280;51013;42.630;23.192;2022-11-20T03:56:36;91711.88;;;15.21;76.71
64602;BME280;51013;42.630;23.192;2022-11-20T03:59:03;91665.41;;;15.02;76.70
64602;BME280;51013;42.630;23.192;2022-11-20T04:01:35;91575.53;;;14.31;76.37
64602;BME280;51013;42.630;23.192;2022-11-20T04:04:03;91634.09;;;14.65;76.85
64602;BME280;51013;42.630;23.192;2022-11-20T04:06:34;91705.84;;;15.21;77.01
64602;BME280;51013;42.630;23.192;2022-11-20T04:09:02;91592.16;;;14.38;76.80
64602;BME280;51013;42.630;23.192;2022-11-20T04:11:32;91709.97;;;15.26;76.01
64602;BME280;51013;42.630;23.192;2022-11-20T04:14:00;91713.75;;;15.25;75.96
64602;BME280;51013;42.630;23.192;2022-11-20T04:16:29;91708.06;;;15.22;76.19
64602;BME280;51013;42.630;23.192;2022-11-20T04:18:57;91679.41;;;15.07;76.10
64602;BME280;51013;42.630;23.192;2022-11-20T04:21:25;91544.63;;;14.10;75.97
64602;BME280;51013;42.630;23.192;2022-11-20T04:23:53;91724.34;;;15.21;76.07
64602;BME280;51013;42.630;23.192;2022-11-20T04:26:24;91727.38;;;15.19;75.93
64602;BME280;51013;42.630;23.192;2022-11-20T04:28:54;91731.13;;;15.22;76.10
64602;BME280;51013;42.630;23.192;2022-11-20T04:31:25;91567.63;;;14.16;76.01
64602;BME280;51013;42.630;23.192;2022-11-20T04:33:52;91716.78;;;15.19;76.60
64602;BME280;51013;42.630;23.192;2022-11-20T04:36:20;91614.78;;;14.39;76.86
64602;BME280;51013;42.630;23.192;2022-11-20T04:38:50;91518.91;;;13.63;77.18
64602;BME280;51013;42.630;23.192;2022-11-20T04:41:19;91456.69;;;13.30;77.43
64602;BME280;51013;42.630;23.192;2022-11-20T04:43:47;91673.34;;;14.74;77.71
64602;BME280;51013;42.630;23.192;2022-11-20T04:46:16;91715.28;;;15.11;77.95
64602;BME280;51013;42.630;23.192;2022-11-20T04:48:44;91679.03;;;14.79;78.29
64602;BME280;51013;42.630;23.192;2022-11-20T04:51:11;91679.41;;;14.81;78.12
64602;BME280;51013;42.630;23.192;2022-11-20T04:53:38;91657.09;;;14.86;78.53
64602;BME280;51013;42.630;23.192;2022-11-20T04:56:07;91714.91;;;15.06;79.11
64602;BME280;51013;42.630;23.192;2022-11-20T04:58:34;91680.16;;;14.78;79.46
64602;BME280;51013;42.630;23.192;2022-11-20T05:01:02;91689.59;;;14.94;79.92
64602;BME280;51013;42.630;23.192;2022-11-20T05:03:32;91690.38;;;14.94;80.36
64602;BME280;51013;42.630;23.192;2022-11-20T05:06:00;91695.25;;;14.85;80.56
64602;BME280;51013;42.630;23.192;2022-11-20T05:08:28;91672.63;;;14.80;81.68
64602;BME280;51013;42.630;23.192;2022-11-20T05:10:59;91668.84;;;14.71;82.09
64602;BME280;51013;42.630;23.192;2022-11-20T05:13:26;91668.47;;;14.72;82.82
64602;BME280;51013;42.630;23.192;2022-11-20T05:15:54;91524.94;;;13.64;83.23
64602;BME280;51013;42.630;23.192;2022-11-20T05:18:21;91605.34;;;14.17;83.63
64602;BME280;51013;42.630;23.192;2022-11-20T05:20:56;91682.41;;;14.48;84.43
64602;BME280;51013;42.630;23.192;2022-11-20T05:23:25;91663.91;;;14.48;84.33
64602;BME280;51013;42.630;23.192;2022-11-20T05:25:53;91514.75;;;13.45;83.65
64602;BME280;51013;42.630;23.192;2022-11-20T05:28:22;91675.59;;;14.50;83.80
64602;BME280;51013;42.630;23.192;2022-11-20T05:30:50;91677.47;;;14.53;83.23
64602;BME280;51013;42.630;23.192;2022-11-20T05:33:18;91677.09;;;14.55;83.45
64602;BME280;51013;42.630;23.192;2022-11-20T05:35:45;91689.56;;;14.51;84.07
64602;BME280;51013;42.630;23.192;2022-11-20T05:38:13;91522.28;;;13.53;83.48
64602;BME280;51013;42.630;23.192;2022-11-20T05:40:41;91507.19;;;13.39;83.59
64602;BME280;51013;42.630;23.192;2022-11-20T05:43:08;91580.78;;;13.95;82.90
64602;BME280;51013;42.630;23.192;2022-11-20T05:45:35;91521.88;;;13.44;82.29
64602;BME280;51013;42.630;23.192;2022-11-20T05:48:02;91691.09;;;14.62;82.73
64602;BME280;51013;42.630;23.192;2022-11-20T05:50:29;91662.34;;;14.21;82.81
64602;BME280;51013;42.630;23.192;2022-11-20T05:52:58;91524.16;;;13.49;82.97
64602;BME280;51013;42.630;23.192;2022-11-20T05:55:27;91686.97;;;14.58;83.32
64602;BME280;51013;42.630;23.192;2022-11-20T05:57:54;91669.94;;;14.52;83.28
64602;BME280;51013;42.630;23.192;2022-11-20T06:00:22;91600.03;;;13.92;82.49
64602;BME280;51013;42.630;23.192;2022-11-20T06:02:49;91439.97;;;12.97;82.24
64602;BME280;51013;42.630;23.192;2022-11-20T06:05:16;91542.69;;;13.67;82.45
64602;BME280;51013;42.630;23.192;2022-11-20T06:07:43;91684.31;;;14.69;82.21
64602;BME280;51013;42.630;23.192;2022-11-20T06:10:11;91665.00;;;14.47;81.92
64602;BME280;51013;42.630;23.192;2022-11-20T06:12:39;91634.41;;;14.31;81.80
64602;BME280;51013;42.630;23.192;2022-11-20T06:15:07;91679.78;;;14.69;81.73
64602;BME280;51013;42.630;23.192;2022-11-20T06:17:34;91648.03;;;14.55;81.34
64602;BME280;51013;42.630;23.192;2022-11-20T06:20:01;91668.41;;;14.51;81.75
64602;BME280;51013;42.630;23.192;2022-11-20T06:22:28;91447.56;;;13.17;81.58
64602;BME280;51013;42.630;23.192;2022-11-20T06:24:55;91572.09;;;13.80;81.91
64602;BME280;51013;42.630;23.192;2022-11-20T06:27:22;91710.38;;;14.92;81.65
64602;BME280;51013;42.630;23.192;2022-11-20T06:29:53;91707.34;;;14.97;81.54
64602;BME280;51013;42.630;23.192;2022-11-20T06:32:20;91712.66;;;15.00;81.50
64602;BME280;51013;42.630;23.192;2022-11-20T06:34:47;91470.63;;;13.31;81.46
64602;BME280;51013;42.630;23.192;2022-11-20T06:37:14;91728.88;;;15.13;81.29
64602;BME280;51013;42.630;23.192;2022-11-20T06:39:41;91704.69;;;14.90;80.89
64602;BME280;51013;42.630;23.192;2022-11-20T06:42:07;91738.69;;;15.02;80.59
64602;BME280;51013;42.630;23.192;2022-11-20T06:44:35;91705.09;;;14.77;80.87
64602;BME280;51013;42.630;23.192;2022-11-20T06:47:04;91605.38;;;14.24;80.54
64602;BME280;51013;42.630;23.192;2022-11-20T06:49:31;91711.91;;;14.96;80.53
64602;BME280;51013;42.630;23.192;2022-11-20T06:52:00;91730.00;;;15.12;80.39
64602;BME280;51013;42.630;23.192;2022-11-20T06:54:27;91591.78;;;14.11;81.43
64602;BME280;51013;42.630;23.192;2022-11-20T06:56:54;91695.63;;;14.66;81.51
64602;BME280;51013;42.630;23.192;2022-11-20T06:59:21;91713.41;;;14.90;81.65
64602;BME280;51013;42.630;23.192;2022-11-20T07:01:48;91697.91;;;14.60;82.79
64602;BME280;51013;42.630;23.192;2022-11-20T07:04:16;91719.06;;;14.60;83.09
64602;BME280;51013;42.630;23.192;2022-11-20T07:06:44;91719.00;;;14.53;83.16
64602;BME280;51013;42.630;23.192;2022-11-20T07:09:10;91705.00;;;14.41;83.55
64602;BME280;51013;42.630;23.192;2022-11-20T07:11:37;91772.31;;;14.80;83.81
64602;BME280;51013;42.630;23.192;2022-11-20T07:14:04;91607.91;;;13.70;84.33
64602;BME280;51013;42.630;23.192;2022-11-20T07:16:32;91749.97;;;14.49;84.57
64602;BME280;51013;42.630;23.192;2022-11-20T07:18:58;91771.53;;;14.61;85.23
64602;BME280;51013;42.630;23.192;2022-11-20T07:21:29;91723.13;;;14.32;85.27
64602;BME280;51013;42.630;23.192;2022-11-20T07:23:57;91667.59;;;14.07;85.78
64602;BME280;51013;42.630;23.192;2022-11-20T07:26:24;91597.31;;;13.56;85.25
64602;BME280;51013;42.630;23.192;2022-11-20T07:28:51;91724.69;;;14.48;84.76
64602;BME280;51013;42.630;23.192;2022-11-20T07:31:18;91754.91;;;14.61;85.26
64602;BME280;51013;42.630;23.192;2022-11-20T07:33:44;91644.53;;;13.90;85.14
64602;BME280;51013;42.630;23.192;2022-11-20T07:36:11;91706.50;;;14.28;84.53
64602;BME280;51013;42.630;23.192;2022-11-20T07:38:40;91697.44;;;14.22;83.69
64602;BME280;51013;42.630;23.192;2022-11-20T07:41:06;91618.50;;;13.85;83.89
64602;BME280;51013;42.630;23.192;2022-11-20T07:43:33;91438.34;;;12.60;82.77
64602;BME280;51013;42.630;23.192;2022-11-20T07:46:04;91425.94;;;12.65;82.03
64602;BME280;51013;42.630;23.192;2022-11-20T07:48:31;91729.63;;;14.81;82.29
64602;BME280;51013;42.630;23.192;2022-11-20T07:50:59;91712.63;;;14.72;81.69
64602;BME280;51013;42.630;23.192;2022-11-20T07:53:26;91754.22;;;14.93;82.83
64602;BME280;51013;42.630;23.192;2022-11-20T07:55:55;91541.47;;;13.39;82.30
64602;BME280;51013;42.630;23.192;2022-11-20T07:58:25;91750.78;;;14.81;82.43
64602;BME280;51013;42.630;23.192;2022-11-20T08:00:53;91722.81;;;14.59;82.57
64602;BME280;51013;42.630;23.192;2022-11-20T08:03:20;91517.66;;;13.25;82.83
64602;BME280;51013;42.630;23.192;2022-11-20T08:05:50;91478.75;;;12.90;83.22
64602;BME280;51013;42.630;23.192;2022-11-20T08:08:17;91753.41;;;14.67;83.94
64602;BME280;51013;42.630;23.192;2022-11-20T08:10:44;91613.56;;;13.69;85.18
64602;BME280;51013;42.630;23.192;2022-11-20T08:13:13;91459.72;;;12.41;86.51
64602;BME280;51013;42.630;23.192;2022-11-20T08:15:57;91773.00;;;14.55;88.69
64602;BME280;51013;42.630;23.192;2022-11-20T08:18:25;91629.28;;;13.40;91.81
64602;BME280;51013;42.630;23.192;2022-11-20T08:20:52;91732.91;;;14.17;92.76
64602;BME280;51013;42.630;23.192;2022-11-20T08:23:19;91575.59;;;13.00;92.80
64602;BME280;51013;42.630;23.192;2022-11-20T08:25:49;91785.00;;;14.31;93.62
64602;BME280;51013;42.630;23.192;2022-11-20T08:28:18;91644.81;;;13.56;93.24
64602;BME280;51013;42.630;23.192;2022-11-20T08:30:45;91637.59;;;13.46;93.87
64602;BME280;51013;42.630;23.192;2022-11-20T08:33:12;91474.03;;;12.43;94.35
64602;BME280;51013;42.630;23.192;2022-11-20T08:35:39;91781.97;;;14.29;93.75
64602;BME280;51013;42.630;23.192;2022-11-20T08:38:08;91501.81;;;12.34;94.20
64602;BME280;51013;42.630;23.192;2022-11-20T08:40:36;91519.81;;;12.25;97.58
64602;BME280;51013;42.630;23.192;2022-11-20T08:43:03;91479.25;;;11.81;99.77
64602;BME280;51013;42.630;23.192;2022-11-20T08:45:36;91523.91;;;11.74;100.00
64602;BME280;51013;42.630;23.192;2022-11-20T08:48:06;91481.63;;;11.52;100.00
64602;BME280;51013;42.630;23.192;2022-11-20T08:50:37;91481.47;;;11.34;100.00
64602;BME280;51013;42.630;23.192;2022-11-20T08:53:04;91497.69;;;11.40;100.00
64602;BME280;51013;42.630;23.192;2022-11-20T08:55:32;91809.47;;;13.48;100.00
64602;BME280;51013;42.630;23.192;2022-11-20T08:58:08;91475.69;;;11.18;100.00
64602;BME280;51013;42.630;23.192;2022-11-20T09:00:38;91526.03;;;11.61;100.00
64602;BME280;51013;42.630;23.192;2022-11-20T09:03:18;91795.97;;;13.53;100.00
64602;BME280;51013;42.630;23.192;2022-11-20T09:05:56;91785.34;;;13.46;100.00
64602;BME280;51013;42.630;23.192;2022-11-20T09:08:24;91810.25;;;13.52;100.00
64602;BME280;51013;42.630;23.192;2022-11-20T09:10:56;91572.88;;;11.86;100.00
64602;BME280;51013;42.630;23.192;2022-11-20T09:13:30;91638.50;;;12.05;100.00
64602;BME280;51013;42.630;23.192;2022-11-20T09:16:00;91721.00;;;12.57;100.00
64602;BME280;51013;42.630;23.192;2022-11-20T09:18:38;91505.94;;;11.05;100.00
64602;BME280;51013;42.630;23.192;2022-11-20T09:21:13;91504.91;;;11.13;100.00
64602;BME280;51013;42.630;23.192;2022-11-20T09:23:54;91674.69;;;12.12;100.00
64602;BME280;51013;42.630;23.192;2022-11-20T09:26:46;91483.50;;;10.77;100.00
64602;BME280;51013;42.630;23.192;2022-11-20T09:29:22;91622.34;;;11.69;100.00
64602;BME280;51013;42.630;23.192;2022-11-20T09:32:10;91491.16;;;10.93;100.00
64602;BME280;51013;42.630;23.192;2022-11-20T09:35:21;91650.69;;;12.20;100.00
64602;BME280;51013;42.630;23.192;2022-11-20T09:37:50;91712.09;;;12.73;100.00
64602;BME280;51013;42.630;23.192;2022-11-20T09:40:56;91462.34;;;11.00;100.00
64602;BME280;51013;42.630;23.192;2022-11-20T09:43:46;91533.59;;;11.62;100.00
64602;BME280;51013;42.630;23.192;2022-11-20T09:53:13;91767.56;;;13.35;100.00
64602;BME280;51013;42.630;23.192;2022-11-20T09:55:45;91553.50;;;12.01;100.00
64602;BME280;51013;42.630;23.192;2022-11-20T09:58:17;91775.94;;;13.45;100.00
64602;BME280;51013;42.630;23.192;2022-11-20T10:00:52;91608.13;;;12.63;100.00
64602;BME280;51013;42.630;23.192;2022-11-20T10:03:26;91476.50;;;11.67;100.00
64602;BME280;51013;42.630;23.192;2022-11-20T10:06:12;91409.97;;;11.18;100.00
64602;BME280;51013;42.630;23.192;2022-11-20T10:09:15;91477.00;;;11.83;100.00
64602;BME280;51013;42.630;23.192;2022-11-20T10:11:56;91434.72;;;11.58;100.00
64602;BME280;51013;42.630;23.192;2022-11-20T10:14:41;91738.41;;;13.80;100.00
64602;BME280;51013;42.630;23.192;2022-11-20T10:17:27;91452.94;;;11.81;100.00
64602;BME280;51013;42.630;23.192;2022-11-20T10:20:22;91740.34;;;13.90;100.00
64602;BME280;51013;42.630;23.192;2022-11-20T10:23:12;91745.59;;;13.83;100.00
64602;BME280;51013;42.630;23.192;2022-11-20T10:26:06;91426.03;;;11.54;100.00
64602;BME280;51013;42.630;23.192;2022-11-20T10:28:58;91448.22;;;11.56;100.00
64602;BME280;51013;42.630;23.192;2022-11-20T10:32:08;91483.41;;;11.86;100.00
64602;BME280;51013;42.630;23.192;2022-11-20T10:35:16;91409.38;;;11.39;100.00
64602;BME280;51013;42.630;23.192;2022-11-20T10:44:05;91755.31;;;13.68;100.00
64602;BME280;51013;42.630;23.192;2022-11-20T10:46:40;91736.47;;;13.62;100.00
64602;BME280;51013;42.630;23.192;2022-11-20T10:49:13;91721.31;;;13.49;100.00
64602;BME280;51013;42.630;23.192;2022-11-20T10:51:56;91446.47;;;11.71;100.00
64602;BME280;51013;42.630;23.192;2022-11-20T10:54:36;91443.63;;;11.46;100.00
64602;BME280;51013;42.630;23.192;2022-11-20T11:03:33;91472.84;;;10.36;99.15
64602;BME280;51013;42.630;23.192;2022-11-20T11:06:24;91477.00;;;10.10;95.02
64602;BME280;51013;42.630;23.192;2022-11-20T11:09:49;91410.69;;;9.87;95.83
64602;BME280;51013;42.630;23.192;2022-11-20T11:12:46;91448.75;;;10.00;97.03
64602;BME280;51013;42.630;23.192;2022-11-20T11:34:04;91612.38;;;10.61;100.00
64602;BME280;51013;42.630;23.192;2022-11-20T11:36:33;91428.13;;;9.26;100.00
64602;BME280;51013;42.630;23.192;2022-11-20T11:39:02;91497.16;;;9.56;100.00
64602;BME280;51013;42.630;23.192;2022-11-20T11:44:31;91763.56;;;11.61;100.00
64602;BME280;51013;42.630;23.192;2022-11-20T11:47:46;91771.50;;;11.65;100.00
64602;BME280;51013;42.630;23.192;2022-11-20T11:50:18;91767.78;;;11.70;100.00
64602;BME280;51013;42.630;23.192;2022-11-20T11:52:56;91764.41;;;11.69;100.00
64602;BME280;51013;42.630;23.192;2022-11-20T11:55:31;91694.88;;;11.10;98.56
64602;BME280;51013;42.630;23.192;2022-11-20T11:58:28;91425.94;;;9.28;98.81
64602;BME280;51013;42.630;23.192;2022-11-20T12:01:42;91430.91;;;9.36;97.26
64602;BME280;51013;42.630;23.192;2022-11-20T12:04:19;91449.22;;;9.56;98.47
64602;BME280;51013;42.630;23.192;2022-11-20T12:07:00;91436.97;;;9.63;98.88
64602;BME280;51013;42.630;23.192;2022-11-20T12:09:37;91615.41;;;10.90;98.67
64602;BME280;51013;42.630;23.192;2022-11-20T12:12:12;91454.47;;;9.56;96.41
64602;BME280;51013;42.630;23.192;2022-11-20T12:15:06;91409.19;;;9.36;96.21
64602;BME280;51013;42.630;23.192;2022-11-20T12:18:15;91735.78;;;11.64;97.90
64602;BME280;51013;42.630;23.192;2022-11-20T12:20:55;91414.66;;;9.50;99.16
64602;BME280;51013;42.630;23.192;2022-11-20T12:31:07;91342.31;;;9.19;100.00
64602;BME280;51013;42.630;23.192;2022-11-20T12:51:24;91712.13;;;12.32;91.57
64602;BME280;51013;42.630;23.192;2022-11-20T12:57:00;91700.59;;;12.47;99.50
64602;BME280;51013;42.630;23.192;2022-11-20T13:00:23;91336.28;;;9.98;100.00
64602;BME280;51013;42.630;23.192;2022-11-20T13:03:43;91391.59;;;10.47;100.00
64602;BME280;51013;42.630;23.192;2022-11-20T13:09:42;91594.63;;;12.20;99.45
64602;BME280;51013;42.630;23.192;2022-11-20T13:12:14;91658.66;;;12.76;98.54
64602;BME280;51013;42.630;23.192;2022-11-20T13:14:47;91513.72;;;11.69;97.93
64602;BME280;51013;42.630;23.192;2022-11-20T13:17:21;91702.91;;;13.08;98.80
64602;BME280;51013;42.630;23.192;2022-11-20T13:19:53;91564.56;;;12.25;98.19
64602;BME280;51013;42.630;23.192;2022-11-20T13:22:44;91387.94;;;10.92;98.49
64602;BME280;51013;42.630;23.192;2022-11-20T13:25:29;91688.59;;;13.05;99.83
64602;BME280;51013;42.630;23.192;2022-11-20T13:28:01;91710.13;;;13.14;100.00
64602;BME280;51013;42.630;23.192;2022-11-20T13:30:31;91710.09;;;13.07;99.90
64602;BME280;51013;42.630;23.192;2022-11-20T13:33:06;91693.94;;;13.12;100.00
64602;BME280;51013;42.630;23.192;2022-11-20T13:35:36;91706.00;;;13.17;100.00
64602;BME280;51013;42.630;23.192;2022-11-20T13:38:06;91698.47;;;13.15;99.43
64602;BME280;51013;42.630;23.192;2022-11-20T13:40:39;91704.81;;;13.07;100.00
64602;BME280;51013;42.630;23.192;2022-11-20T13:43:22;91668.06;;;12.73;100.00
64602;BME280;51013;42.630;23.192;2022-11-20T13:46:00;91676.84;;;12.95;100.00
64602;BME280;51013;42.630;23.192;2022-11-20T13:48:30;91608.34;;;12.40;100.00
64602;BME280;51013;42.630;23.192;2022-11-20T13:51:11;91663.53;;;12.74;100.00
64602;BME280;51013;42.630;23.192;2022-11-20T13:54:07;91580.13;;;12.44;100.00
64602;BME280;51013;42.630;23.192;2022-11-20T13:56:48;91433.66;;;11.25;100.00
64602;BME280;51013;42.630;23.192;2022-11-20T13:59:33;91673.81;;;12.93;100.00
64602;BME280;51013;42.630;23.192;2022-11-20T14:02:10;91524.41;;;11.87;100.00
64602;BME280;51013;42.630;23.192;2022-11-20T14:04:42;91608.00;;;12.49;100.00
64602;BME280;51013;42.630;23.192;2022-11-20T14:07:11;91583.88;;;12.39;99.22
64602;BME280;51013;42.630;23.192;2022-11-20T14:09:38;91440.63;;;11.44;99.53
64602;BME280;51013;42.630;23.192;2022-11-20T14:12:16;91413.03;;;11.27;98.93
64602;BME280;51013;42.630;23.192;2022-11-20T14:14:48;91446.50;;;11.75;99.21
64602;BME280;51013;42.630;23.192;2022-11-20T14:17:20;91649.09;;;13.12;99.58
64602;BME280;51013;42.630;23.192;2022-11-20T14:19:52;91514.25;;;12.37;99.24
64602;BME280;51013;42.630;23.192;2022-11-20T14:22:21;91586.84;;;12.93;98.89
64602;BME280;51013;42.630;23.192;2022-11-20T14:25:01;91568.78;;;12.95;98.75
64602;BME280;51013;42.630;23.192;2022-11-20T14:27:33;91660.22;;;13.47;98.90
64602;BME280;51013;42.630;23.192;2022-11-20T14:30:01;91591.34;;;12.93;96.91
64602;BME280;51013;42.630;23.192;2022-11-20T14:32:29;91575.84;;;12.80;94.74
64602;BME280;51013;42.630;23.192;2022-11-20T14:35:02;91639.69;;;13.15;94.94
64602;BME280;51013;42.630;23.192;2022-11-20T14:37:37;91701.28;;;13.40;94.63
64602;BME280;51013;42.630;23.192;2022-11-20T14:40:14;91695.50;;;13.24;95.88
64602;BME280;51013;42.630;23.192;2022-11-20T14:42:49;91695.41;;;13.06;97.42